DEMAR EDXW-BIAR
Flight info
| Callsign | DEMAR |
|---|---|
| Flight time | N/A |
| Altitude | 21000 |
| Route | OLDIP1B OLDIP DCT ATTUS/N0232F200 P992 BAVTA DCT MITSI DCT OBUPA/N0238F220 DCT GUNPA/M039F220 DCT 64N009W DCT RETUR DCT MAMEP |
| Aircraft | B36T/L-BDFGLORY/S |
Departure
| Time | 2026-04-23 08:55 |
|---|---|
| Airport | Westerland Sylt Airport (EDXW) |
Arrival
| Time | N/A |
|---|---|
| Airport | Akureyri International Airport (BIAR) |
| Time | Latitude | Longitude | Altitude | Speed | Heading |
|---|---|---|---|---|---|
| 2026-04-23 08:51 | 54.91294 | 8.32481 | 27 ft | 0 kts | 71° |
| 2026-04-23 08:53 | 54.91290 | 8.32529 | 27 ft | 14 kts | 130° |
| 2026-04-23 08:53 | 54.91165 | 8.32703 | 32 ft | 33 kts | 134° |
| 2026-04-23 08:54 | 54.91068 | 8.32909 | 35 ft | 33 kts | 133° |
| 2026-04-23 08:54 | 54.91026 | 8.33165 | 32 ft | 34 kts | 57° |
| 2026-04-23 08:54 | 54.91143 | 8.33509 | 29 ft | 42 kts | 60° |
| 2026-04-23 08:54 | 54.91278 | 8.33898 | 33 ft | 29 kts | 69° |
| 2026-04-23 08:55 | 54.91372 | 8.33986 | 35 ft | 17 kts | 323° |
| 2026-04-23 08:55 | 54.91709 | 8.33556 | 101 ft | 90 kts | 327° |
| 2026-04-23 08:55 | 54.92213 | 8.32838 | 653 ft | 103 kts | 316° |
| 2026-04-23 08:55 | 54.92827 | 8.32284 | 1356 ft | 106 kts | 5° |
| 2026-04-23 08:56 | 54.93543 | 8.32177 | 2153 ft | 108 kts | 331° |
| 2026-04-23 08:56 | 54.94191 | 8.31527 | 2921 ft | 108 kts | 339° |
| 2026-04-23 08:56 | 54.94915 | 8.30893 | 3363 ft | 134 kts | 335° |
| 2026-04-23 08:56 | 54.95850 | 8.30098 | 3376 ft | 161 kts | 335° |
| 2026-04-23 08:57 | 54.96865 | 8.29222 | 3195 ft | 150 kts | 335° |
| 2026-04-23 08:57 | 54.97739 | 8.28479 | 2674 ft | 139 kts | 336° |
| 2026-04-23 08:57 | 54.98584 | 8.27747 | 2325 ft | 131 kts | 334° |
| 2026-04-23 08:57 | 54.99410 | 8.27039 | 1987 ft | 129 kts | 335° |
| 2026-04-23 08:58 | 55.00204 | 8.26351 | 1982 ft | 136 kts | 335° |
| 2026-04-23 08:58 | 55.01106 | 8.25582 | 1991 ft | 151 kts | 336° |
| 2026-04-23 08:58 | 55.02082 | 8.24759 | 1991 ft | 157 kts | 335° |
| 2026-04-23 08:58 | 55.03064 | 8.23920 | 1993 ft | 157 kts | 335° |
| 2026-04-23 08:59 | 55.04052 | 8.23073 | 1991 ft | 158 kts | 336° |
| 2026-04-23 08:59 | 55.05034 | 8.22232 | 1985 ft | 156 kts | 335° |
| 2026-04-23 08:59 | 55.06005 | 8.21399 | 1984 ft | 155 kts | 335° |
| 2026-04-23 08:59 | 55.06965 | 8.20577 | 1984 ft | 153 kts | 335° |
| 2026-04-23 09:00 | 55.07907 | 8.19769 | 1980 ft | 150 kts | 335° |
| 2026-04-23 09:00 | 55.08844 | 8.18964 | 1977 ft | 149 kts | 335° |
| 2026-04-23 09:00 | 55.09778 | 8.18164 | 1978 ft | 149 kts | 335° |
| 2026-04-23 09:00 | 55.10708 | 8.17366 | 1977 ft | 149 kts | 335° |
| 2026-04-23 09:01 | 55.11649 | 8.16557 | 1979 ft | 151 kts | 335° |
| 2026-04-23 09:01 | 55.12592 | 8.15748 | 1977 ft | 151 kts | 336° |
| 2026-04-23 09:01 | 55.13541 | 8.14932 | 1977 ft | 153 kts | 335° |
| 2026-04-23 09:01 | 55.14500 | 8.14105 | 1977 ft | 153 kts | 336° |
| 2026-04-23 09:02 | 55.15440 | 8.13298 | 1974 ft | 152 kts | 335° |
| 2026-04-23 09:02 | 55.16394 | 8.12474 | 1985 ft | 154 kts | 335° |
| 2026-04-23 09:02 | 55.17347 | 8.11656 | 1987 ft | 151 kts | 336° |
| 2026-04-23 09:02 | 55.18286 | 8.10844 | 1987 ft | 151 kts | 336° |
| 2026-04-23 09:03 | 55.19227 | 8.10032 | 1986 ft | 152 kts | 335° |
| 2026-04-23 09:03 | 55.20168 | 8.09221 | 1985 ft | 150 kts | 335° |
| 2026-04-23 09:03 | 55.21110 | 8.08407 | 1980 ft | 152 kts | 335° |
| 2026-04-23 09:03 | 55.22058 | 8.07589 | 1976 ft | 152 kts | 335° |
| 2026-04-23 09:04 | 55.23002 | 8.06770 | 1978 ft | 150 kts | 335° |
| 2026-04-23 09:04 | 55.23938 | 8.05958 | 1969 ft | 151 kts | 335° |
| 2026-04-23 09:04 | 55.24878 | 8.05146 | 1978 ft | 149 kts | 335° |
| 2026-04-23 09:04 | 55.25802 | 8.04346 | 1979 ft | 148 kts | 335° |
| 2026-04-23 09:05 | 55.26737 | 8.03531 | 1984 ft | 153 kts | 334° |
| 2026-04-23 09:05 | 55.27682 | 8.02719 | 1985 ft | 153 kts | 335° |
| 2026-04-23 09:05 | 55.28641 | 8.01891 | 1980 ft | 155 kts | 334° |
| 2026-04-23 09:05 | 55.29612 | 8.01046 | 1978 ft | 156 kts | 335° |
| 2026-04-23 09:06 | 55.30581 | 8.00203 | 1982 ft | 155 kts | 335° |
| 2026-04-23 09:06 | 55.31544 | 7.99368 | 1973 ft | 155 kts | 334° |
| 2026-04-23 09:06 | 55.32513 | 7.98522 | 1979 ft | 155 kts | 335° |
| 2026-04-23 09:06 | 55.33482 | 7.97680 | 1985 ft | 155 kts | 335° |
| 2026-04-23 09:07 | 55.34440 | 7.96848 | 1988 ft | 155 kts | 334° |
| 2026-04-23 09:07 | 55.35409 | 7.96002 | 1985 ft | 156 kts | 335° |
| 2026-04-23 09:07 | 55.36378 | 7.95159 | 1985 ft | 155 kts | 335° |
| 2026-04-23 09:07 | 55.37353 | 7.94310 | 1987 ft | 157 kts | 335° |
| 2026-04-23 09:08 | 55.38329 | 7.93460 | 1976 ft | 156 kts | 334° |
| 2026-04-23 09:08 | 55.39299 | 7.92614 | 1982 ft | 155 kts | 334° |
| 2026-04-23 09:08 | 55.40257 | 7.91775 | 1985 ft | 155 kts | 334° |
| 2026-04-23 09:08 | 55.41210 | 7.90942 | 2099 ft | 148 kts | 334° |
| 2026-04-23 09:09 | 55.42122 | 7.90136 | 2348 ft | 147 kts | 335° |
| 2026-04-23 09:09 | 55.43054 | 7.89325 | 2600 ft | 151 kts | 335° |
| 2026-04-23 09:09 | 55.43991 | 7.88508 | 2857 ft | 151 kts | 335° |
| 2026-04-23 09:09 | 55.44937 | 7.87679 | 3109 ft | 152 kts | 335° |
| 2026-04-23 09:10 | 55.45891 | 7.86843 | 3365 ft | 154 kts | 335° |
| 2026-04-23 09:10 | 55.47789 | 7.85179 | 3871 ft | 152 kts | 335° |
| 2026-04-23 09:10 | 55.48730 | 7.84355 | 4122 ft | 150 kts | 335° |
| 2026-04-23 09:11 | 55.49660 | 7.83538 | 4371 ft | 149 kts | 335° |
| 2026-04-23 09:11 | 55.50594 | 7.82718 | 4627 ft | 150 kts | 335° |
| 2026-04-23 09:11 | 55.51531 | 7.81895 | 4884 ft | 150 kts | 335° |
| 2026-04-23 09:11 | 55.52467 | 7.81071 | 5132 ft | 150 kts | 335° |
| 2026-04-23 09:12 | 55.53396 | 7.80254 | 5378 ft | 148 kts | 335° |
| 2026-04-23 09:12 | 55.54304 | 7.79455 | 5627 ft | 147 kts | 335° |
| 2026-04-23 09:12 | 55.55220 | 7.78649 | 5876 ft | 147 kts | 334° |
| 2026-04-23 09:12 | 55.56135 | 7.77843 | 6129 ft | 147 kts | 334° |
| 2026-04-23 09:13 | 55.57048 | 7.77037 | 6383 ft | 146 kts | 335° |
| 2026-04-23 09:13 | 55.57960 | 7.76233 | 6639 ft | 146 kts | 334° |
| 2026-04-23 09:13 | 55.58872 | 7.75429 | 6885 ft | 146 kts | 334° |
| 2026-04-23 09:13 | 55.59785 | 7.74622 | 7122 ft | 147 kts | 335° |
| 2026-04-23 09:14 | 55.60701 | 7.73813 | 7367 ft | 147 kts | 334° |
| 2026-04-23 09:14 | 55.61619 | 7.73003 | 7611 ft | 148 kts | 335° |
| 2026-04-23 09:14 | 55.62538 | 7.72189 | 7857 ft | 148 kts | 335° |
| 2026-04-23 09:14 | 55.63462 | 7.71371 | 8105 ft | 148 kts | 335° |
| 2026-04-23 09:15 | 55.64387 | 7.70553 | 8355 ft | 148 kts | 334° |
| 2026-04-23 09:15 | 55.65300 | 7.69745 | 8597 ft | 149 kts | 335° |
| 2026-04-23 09:15 | 55.66227 | 7.68922 | 8850 ft | 149 kts | 335° |
| 2026-04-23 09:15 | 55.67158 | 7.68099 | 9106 ft | 150 kts | 334° |
| 2026-04-23 09:16 | 55.68092 | 7.67269 | 9359 ft | 150 kts | 335° |
| 2026-04-23 09:16 | 55.69032 | 7.66434 | 9623 ft | 152 kts | 335° |
| 2026-04-23 09:16 | 55.69975 | 7.65599 | 9888 ft | 151 kts | 335° |
| 2026-04-23 09:16 | 55.70920 | 7.64757 | 10154 ft | 152 kts | 335° |
| 2026-04-23 09:17 | 55.71866 | 7.63917 | 10402 ft | 152 kts | 335° |
| 2026-04-23 09:17 | 55.72810 | 7.63076 | 10639 ft | 152 kts | 335° |
| 2026-04-23 09:17 | 55.73758 | 7.62232 | 10877 ft | 153 kts | 335° |
| 2026-04-23 09:17 | 55.74713 | 7.61383 | 11120 ft | 153 kts | 335° |
| 2026-04-23 09:18 | 55.75671 | 7.60528 | 11364 ft | 155 kts | 335° |
| 2026-04-23 09:18 | 55.76638 | 7.59667 | 11603 ft | 156 kts | 335° |
| 2026-04-23 09:18 | 55.77607 | 7.58803 | 11850 ft | 155 kts | 335° |
| 2026-04-23 09:18 | 55.78564 | 7.57950 | 12095 ft | 156 kts | 335° |
| 2026-04-23 09:19 | 55.79534 | 7.57083 | 12346 ft | 156 kts | 335° |
| 2026-04-23 09:19 | 55.80503 | 7.56217 | 12601 ft | 155 kts | 335° |
| 2026-04-23 09:19 | 55.81470 | 7.55352 | 12854 ft | 156 kts | 335° |
| 2026-04-23 09:19 | 55.82447 | 7.54477 | 13111 ft | 157 kts | 335° |
| 2026-04-23 09:20 | 55.83423 | 7.53602 | 13368 ft | 158 kts | 335° |
| 2026-04-23 09:20 | 55.84415 | 7.52715 | 13629 ft | 160 kts | 335° |
| 2026-04-23 09:20 | 55.85415 | 7.51820 | 13895 ft | 160 kts | 336° |
| 2026-04-23 09:20 | 55.86407 | 7.50932 | 14162 ft | 160 kts | 335° |
| 2026-04-23 09:21 | 55.87392 | 7.50045 | 14386 ft | 160 kts | 336° |
| 2026-04-23 09:21 | 55.88383 | 7.49158 | 14621 ft | 159 kts | 335° |
| 2026-04-23 09:21 | 55.89372 | 7.48269 | 14856 ft | 160 kts | 335° |
| 2026-04-23 09:21 | 55.90371 | 7.47370 | 15100 ft | 161 kts | 335° |
| 2026-04-23 09:22 | 55.91371 | 7.46470 | 15349 ft | 161 kts | 335° |
| 2026-04-23 09:22 | 55.92381 | 7.45563 | 15590 ft | 163 kts | 335° |
| 2026-04-23 09:22 | 55.93402 | 7.44643 | 15837 ft | 164 kts | 336° |
| 2026-04-23 09:22 | 55.94416 | 7.43733 | 16084 ft | 163 kts | 335° |
| 2026-04-23 09:23 | 55.95433 | 7.42810 | 16331 ft | 164 kts | 335° |
| 2026-04-23 09:23 | 55.96444 | 7.41903 | 16587 ft | 161 kts | 336° |
| 2026-04-23 09:23 | 55.97447 | 7.40999 | 16840 ft | 162 kts | 336° |
| 2026-04-23 09:23 | 55.98462 | 7.40082 | 17090 ft | 164 kts | 335° |
| 2026-04-23 09:24 | 55.99481 | 7.39166 | 17340 ft | 165 kts | 334° |
| 2026-04-23 09:24 | 56.00512 | 7.38229 | 17591 ft | 167 kts | 335° |
| 2026-04-23 09:24 | 56.01540 | 7.37298 | 17851 ft | 168 kts | 334° |
| 2026-04-23 09:24 | 56.02585 | 7.36355 | 18112 ft | 168 kts | 335° |
| 2026-04-23 09:25 | 56.03634 | 7.35402 | 18383 ft | 169 kts | 335° |
| 2026-04-23 09:25 | 56.04687 | 7.34448 | 18647 ft | 170 kts | 335° |
| 2026-04-23 09:25 | 56.05740 | 7.33495 | 18880 ft | 170 kts | 334° |
| 2026-04-23 09:25 | 56.06802 | 7.32529 | 19112 ft | 172 kts | 335° |
| 2026-04-23 09:26 | 56.07871 | 7.31563 | 19341 ft | 173 kts | 334° |
| 2026-04-23 09:26 | 56.08951 | 7.30580 | 19580 ft | 175 kts | 334° |
| 2026-04-23 09:26 | 56.10041 | 7.29589 | 19814 ft | 176 kts | 334° |
| 2026-04-23 09:26 | 56.11128 | 7.28602 | 20061 ft | 175 kts | 334° |
| 2026-04-23 09:27 | 56.12217 | 7.27607 | 20305 ft | 176 kts | 335° |
| 2026-04-23 09:27 | 56.13307 | 7.26616 | 20549 ft | 176 kts | 334° |
| 2026-04-23 09:27 | 56.14398 | 7.25622 | 20794 ft | 176 kts | 334° |
| 2026-04-23 09:27 | 56.15504 | 7.24613 | 20979 ft | 182 kts | 334° |
| 2026-04-23 09:28 | 56.16666 | 7.23560 | 20988 ft | 192 kts | 334° |
| 2026-04-23 09:28 | 56.17875 | 7.22461 | 20991 ft | 198 kts | 334° |
| 2026-04-23 09:28 | 56.19098 | 7.21343 | 20995 ft | 201 kts | 334° |
| 2026-04-23 09:28 | 56.20347 | 7.20198 | 20990 ft | 202 kts | 333° |
| 2026-04-23 09:29 | 56.21604 | 7.19047 | 20997 ft | 202 kts | 334° |
| 2026-04-23 09:29 | 56.22856 | 7.17901 | 20989 ft | 202 kts | 334° |
| 2026-04-23 09:29 | 56.24112 | 7.16748 | 20988 ft | 203 kts | 334° |
| 2026-04-23 09:29 | 56.25371 | 7.15595 | 20991 ft | 203 kts | 334° |
| 2026-04-23 09:30 | 56.26633 | 7.14436 | 20996 ft | 204 kts | 334° |
| 2026-04-23 09:30 | 56.27896 | 7.13275 | 20989 ft | 204 kts | 334° |
| 2026-04-23 09:30 | 56.29162 | 7.12114 | 20990 ft | 204 kts | 334° |
| 2026-04-23 09:30 | 56.30426 | 7.10962 | 21000 ft | 204 kts | 334° |
| 2026-04-23 09:31 | 56.31689 | 7.09798 | 20997 ft | 203 kts | 334° |
| 2026-04-23 09:31 | 56.32945 | 7.08634 | 20994 ft | 203 kts | 334° |
| 2026-04-23 09:31 | 56.34191 | 7.07486 | 20994 ft | 204 kts | 334° |
| 2026-04-23 09:31 | 56.35454 | 7.06322 | 20996 ft | 204 kts | 334° |